createdAt,value
2022-10-11T00:00:16.657Z,7.63
2022-10-11T00:02:46.337Z,8.38
2022-10-11T00:05:18.340Z,7.85
2022-10-11T00:07:52.368Z,7.97
2022-10-11T00:10:20.087Z,7.70
2022-10-11T00:12:47.829Z,8.18
2022-10-11T00:15:25.370Z,8.30
2022-10-11T00:17:52.732Z,8.80
2022-10-11T00:20:20.303Z,8.68
2022-10-11T00:22:57.028Z,8.20
2022-10-11T00:25:31.095Z,8.35
2022-10-11T00:28:12.071Z,7.95
2022-10-11T00:30:43.807Z,9.60
2022-10-11T00:33:24.311Z,8.90
2022-10-11T00:35:54.253Z,9.48
2022-10-11T00:38:21.680Z,9.48
2022-10-11T00:40:55.257Z,10.05
2022-10-11T00:43:26.553Z,9.15
2022-10-11T00:46:03.643Z,8.80
2022-10-11T00:48:42.680Z,8.65
2022-10-11T00:51:35.254Z,7.57
2022-10-11T00:54:03.605Z,8.60
2022-10-11T00:56:44.262Z,9.65
2022-10-11T00:59:20.977Z,8.20
2022-10-11T01:01:55.152Z,8.77
2022-10-11T01:04:22.890Z,9.85
2022-10-11T01:06:51.867Z,9.77
2022-10-11T01:09:30.146Z,10.73
2022-10-11T01:12:00.659Z,10.60
2022-10-11T01:14:44.170Z,10.15
2022-10-11T01:17:20.462Z,10.18
2022-10-11T01:20:14.159Z,11.35
2022-10-11T01:23:11.819Z,9.82
2022-10-11T01:26:19.114Z,9.77
2022-10-11T01:29:25.454Z,9.70
2022-10-11T01:32:28.125Z,10.15
2022-10-11T01:35:06.570Z,9.70
2022-10-11T01:37:48.122Z,11.00
2022-10-11T01:40:24.967Z,12.27
2022-10-11T01:43:00.138Z,12.35
2022-10-11T01:45:33.710Z,12.63
2022-10-11T01:48:15.499Z,11.88
2022-10-11T01:51:01.926Z,13.35
2022-10-11T01:54:23.854Z,13.32
2022-10-11T01:57:04.759Z,15.57
2022-10-11T02:00:05.798Z,15.88
2022-10-11T02:02:47.219Z,17.45
2022-10-11T02:05:32.757Z,17.27
2022-10-11T02:08:17.720Z,15.82
2022-10-11T02:11:03.787Z,19.52
2022-10-11T02:13:55.918Z,15.93
2022-10-11T02:16:35.767Z,17.75
2022-10-11T02:19:10.921Z,17.73
2022-10-11T02:21:48.291Z,18.40
2022-10-11T02:24:38.189Z,18.77
2022-10-11T02:27:25.644Z,21.88
2022-10-11T02:29:59.681Z,21.70
2022-10-11T02:32:34.953Z,22.42
2022-10-11T02:35:06.191Z,23.75
2022-10-11T02:38:00.463Z,22.50
2022-10-11T02:40:33.555Z,23.92
2022-10-11T02:43:12.450Z,24.42
2022-10-11T02:45:44.729Z,25.20
2022-10-11T02:48:19.445Z,26.38
2022-10-11T02:50:47.353Z,27.88
2022-10-11T02:53:14.688Z,28.77
2022-10-11T02:55:48.455Z,28.27
2022-10-11T02:58:15.782Z,29.27
2022-10-11T03:00:43.650Z,28.85
2022-10-11T03:03:18.592Z,31.40
2022-10-11T03:05:50.861Z,30.35
2022-10-11T03:08:18.499Z,28.95
2022-10-11T03:10:55.709Z,27.90
2022-10-11T03:13:23.027Z,30.45
2022-10-11T03:16:02.323Z,28.60
2022-10-11T03:18:42.427Z,28.65
2022-10-11T03:21:10.116Z,28.65
2022-10-11T03:23:40.197Z,27.05
2022-10-11T03:26:14.106Z,24.83
2022-10-11T03:28:41.542Z,24.35
2022-10-11T03:31:13.790Z,24.50
2022-10-11T03:33:47.750Z,24.13
2022-10-11T03:36:15.211Z,24.05
2022-10-11T03:38:42.733Z,24.48
2022-10-11T03:41:16.739Z,23.15
2022-10-11T03:43:44.184Z,22.88
2022-10-11T03:46:11.584Z,20.02
2022-10-11T03:48:46.744Z,22.65
2022-10-11T03:51:15.094Z,21.75
2022-10-11T03:53:42.522Z,22.25
2022-10-11T03:56:16.787Z,25.42
2022-10-11T03:58:44.207Z,22.77
2022-10-11T04:01:11.842Z,23.55
2022-10-11T04:03:47.733Z,24.40
2022-10-11T04:06:15.086Z,25.13
2022-10-11T04:08:42.512Z,23.77
2022-10-11T04:11:16.714Z,21.98
2022-10-11T04:13:44.080Z,23.05
2022-10-11T04:16:11.421Z,26.60
2022-10-11T04:18:48.266Z,24.55
2022-10-11T04:21:15.760Z,23.73
2022-10-11T04:23:43.113Z,22.10
2022-10-11T04:26:18.815Z,21.45
2022-10-11T04:28:52.986Z,22.00
2022-10-11T04:31:26.789Z,22.35
2022-10-11T04:33:54.190Z,23.90
2022-10-11T04:36:24.329Z,23.00
2022-10-11T04:38:58.073Z,22.98
2022-10-11T04:41:25.873Z,21.73
2022-10-11T04:43:53.231Z,21.48
2022-10-11T04:46:27.086Z,22.90
2022-10-11T04:48:57.039Z,23.02
2022-10-11T04:51:27.615Z,24.02
2022-10-11T04:54:02.026Z,24.30
2022-10-11T04:56:30.651Z,22.85
2022-10-11T04:58:58.003Z,23.30
2022-10-11T05:01:32.015Z,23.27
2022-10-11T05:03:59.448Z,20.38
2022-10-11T05:06:26.928Z,22.27
2022-10-11T05:09:02.690Z,21.92
2022-10-11T05:11:30.217Z,22.42
2022-10-11T05:13:57.846Z,22.95
2022-10-11T05:16:31.784Z,21.98
2022-10-11T05:19:01.538Z,23.55
2022-10-11T05:21:32.137Z,22.70
2022-10-11T05:24:05.891Z,24.45
2022-10-11T05:26:56.962Z,24.17
2022-10-11T05:29:33.104Z,24.02
2022-10-11T05:32:00.494Z,25.42
2022-10-11T05:34:30.329Z,26.33
2022-10-11T05:37:04.358Z,25.02
2022-10-11T05:39:32.396Z,26.52
2022-10-11T05:41:59.852Z,27.48
2022-10-11T05:44:34.353Z,30.45
2022-10-11T05:47:01.747Z,30.02
2022-10-11T05:49:29.284Z,27.02
2022-10-11T05:52:03.327Z,27.17
2022-10-11T05:54:31.712Z,27.02
2022-10-11T05:56:59.235Z,25.83
2022-10-11T05:59:36.029Z,26.55
2022-10-11T06:02:04.114Z,24.83
2022-10-11T06:04:31.657Z,22.85
2022-10-11T06:07:06.018Z,26.27
2022-10-11T06:09:39.620Z,25.02
2022-10-11T06:12:07.341Z,23.38
2022-10-11T06:14:44.032Z,23.80
2022-10-11T06:17:11.538Z,25.40
2022-10-11T06:19:38.894Z,30.15
2022-10-11T06:22:13.019Z,26.40
2022-10-11T06:24:40.423Z,26.88
2022-10-11T06:27:21.038Z,31.52
2022-10-11T06:29:48.432Z,29.92
2022-10-11T06:32:18.263Z,31.73
2022-10-11T06:34:52.290Z,32.17
2022-10-11T06:37:20.372Z,33.78
2022-10-11T06:39:48.019Z,32.80
2022-10-11T06:42:22.302Z,30.98
2022-10-11T06:44:49.710Z,29.30
2022-10-11T06:47:17.099Z,30.80
2022-10-11T06:49:56.501Z,32.03
2022-10-11T06:52:23.883Z,34.90
2022-10-11T06:54:51.429Z,40.92
2022-10-11T06:57:25.503Z,40.28
2022-10-11T06:59:52.858Z,35.63
2022-10-11T07:02:25.071Z,40.08
2022-10-11T07:04:59.108Z,56.42
2022-10-11T07:07:26.503Z,40.00
2022-10-11T07:09:54.017Z,35.47
2022-10-11T07:12:28.085Z,40.10
2022-10-11T07:15:00.522Z,39.92
2022-10-11T07:17:30.182Z,30.42
2022-10-11T07:20:04.226Z,30.77
2022-10-11T07:22:31.634Z,32.15
2022-10-11T07:24:58.980Z,30.05
2022-10-11T07:27:33.209Z,30.85
2022-10-11T07:30:00.604Z,29.63
2022-10-11T07:32:28.010Z,29.77
2022-10-11T07:35:03.272Z,31.48
2022-10-11T07:37:30.738Z,30.60
2022-10-11T07:39:58.134Z,29.88
2022-10-11T07:42:32.241Z,29.60
2022-10-11T07:44:59.772Z,29.88
2022-10-11T07:47:27.198Z,31.45
2022-10-11T07:50:06.240Z,29.75
2022-10-11T07:52:40.653Z,33.63
2022-10-11T07:55:15.338Z,28.75
2022-10-11T07:57:48.750Z,26.52
2022-10-11T08:00:23.850Z,38.95
2022-10-11T08:02:51.280Z,42.03
2022-10-11T08:05:18.764Z,46.90
2022-10-11T08:07:52.786Z,29.08
2022-10-11T08:10:23.148Z,31.33
2022-10-11T08:12:50.942Z,34.65
2022-10-11T08:15:25.034Z,35.35
2022-10-11T08:17:52.509Z,54.47
2022-10-11T08:20:20.632Z,38.80
2022-10-11T08:22:55.058Z,47.22
2022-10-11T08:25:30.218Z,34.67
2022-10-11T08:28:11.140Z,35.22
2022-10-11T08:30:38.757Z,42.25
2022-10-11T08:33:08.563Z,51.55
2022-10-11T08:35:44.040Z,27.60
2022-10-11T08:38:12.100Z,37.15
2022-10-11T08:40:52.182Z,27.63
2022-10-11T08:43:48.251Z,36.72
2022-10-11T08:46:23.067Z,29.20
2022-10-11T08:48:52.173Z,39.47
2022-10-11T08:51:41.261Z,38.65
2022-10-11T08:54:21.098Z,30.20
2022-10-11T08:56:56.110Z,28.85
2022-10-11T08:59:46.467Z,28.75
2022-10-11T09:03:06.293Z,30.98
2022-10-11T09:06:00.702Z,24.45
2022-10-11T09:08:40.463Z,31.13
2022-10-11T09:11:26.697Z,32.28
2022-10-11T09:14:00.469Z,24.38
2022-10-11T09:16:46.501Z,26.35
2022-10-11T09:19:49.461Z,27.27
2022-10-11T09:22:31.512Z,29.58
2022-10-11T09:25:12.612Z,25.80
2022-10-11T09:28:17.661Z,26.05
2022-10-11T09:31:01.482Z,24.75
2022-10-11T09:33:42.566Z,25.95
2022-10-11T09:36:44.482Z,25.58
2022-10-11T09:39:35.437Z,24.40
2022-10-11T09:42:14.593Z,30.35
2022-10-11T09:44:47.760Z,27.85
2022-10-11T09:47:39.646Z,23.17
2022-10-11T09:50:20.768Z,24.20
2022-10-11T09:53:00.658Z,23.60
2022-10-11T09:55:50.896Z,23.45
2022-10-11T09:58:33.965Z,25.83
2022-10-11T10:01:08.674Z,26.90
2022-10-11T10:03:48.632Z,26.77
2022-10-11T10:06:25.100Z,22.33
2022-10-11T10:09:36.625Z,23.05
2022-10-11T10:12:21.480Z,25.38
2022-10-11T10:15:14.185Z,24.33
2022-10-11T10:17:49.817Z,23.65
2022-10-11T10:20:38.156Z,24.05
2022-10-11T10:23:28.474Z,24.02
2022-10-11T10:26:27.227Z,23.70
2022-10-11T10:29:09.264Z,21.50
2022-10-11T10:32:19.476Z,24.35
2022-10-11T10:35:08.345Z,25.30
2022-10-11T10:37:50.186Z,21.17
2022-10-11T10:40:36.219Z,21.52
2022-10-11T10:43:10.154Z,23.00
2022-10-11T10:46:08.542Z,25.58
2022-10-11T10:52:19.214Z,20.25
2022-10-11T10:54:59.208Z,22.90
2022-10-11T10:57:38.302Z,20.08
2022-10-11T11:00:30.192Z,20.15
2022-10-11T11:03:00.576Z,21.38
2022-10-11T11:06:00.190Z,21.75
2022-10-11T11:08:49.155Z,22.45
2022-10-11T11:11:32.047Z,20.75
2022-10-11T11:14:27.468Z,21.77
2022-10-11T11:17:26.228Z,20.60
2022-10-11T11:20:27.202Z,20.73
2022-10-11T11:23:27.051Z,18.00
2022-10-11T11:26:56.154Z,22.02
2022-10-11T11:29:58.039Z,20.98
2022-10-11T11:32:45.909Z,19.08
2022-10-11T11:35:43.038Z,19.38
2022-10-11T11:38:14.335Z,20.27
2022-10-11T11:40:57.056Z,18.45
2022-10-11T11:43:47.052Z,18.90
2022-10-11T11:46:28.517Z,16.25
2022-10-11T11:49:00.128Z,17.80
2022-10-11T11:51:52.216Z,17.23
2022-10-11T11:54:38.439Z,18.25
2022-10-11T11:57:22.301Z,17.33
2022-10-11T12:00:07.804Z,16.88
2022-10-11T12:02:59.247Z,19.08
2022-10-11T12:05:37.087Z,18.75
2022-10-11T12:08:15.024Z,17.52
2022-10-11T12:10:51.685Z,17.70
2022-10-11T12:13:46.033Z,18.65
2022-10-11T12:16:22.915Z,18.10
2022-10-11T12:19:08.456Z,17.80
2022-10-11T12:21:43.622Z,16.52
2022-10-11T12:24:26.595Z,18.48
2022-10-11T12:27:52.565Z,17.02
2022-10-11T12:30:54.557Z,16.45
2022-10-11T12:33:47.454Z,16.60
2022-10-11T12:36:36.600Z,16.83
2022-10-11T12:39:22.569Z,15.77
2022-10-11T12:42:05.833Z,16.52
2022-10-11T12:44:33.780Z,18.52
2022-10-11T12:47:40.743Z,16.58
2022-10-11T12:50:43.424Z,18.25
2022-10-11T12:54:02.462Z,16.70
2022-10-11T12:57:12.008Z,17.63
2022-10-11T12:59:58.664Z,17.65
2022-10-11T13:02:44.540Z,15.23
2022-10-11T13:05:32.690Z,19.48
2022-10-11T13:08:05.515Z,18.67
2022-10-11T13:10:54.246Z,18.85
2022-10-11T13:13:35.136Z,17.17
2022-10-11T13:16:18.836Z,16.95
2022-10-11T13:18:49.342Z,15.88
2022-10-11T13:21:42.785Z,15.32
2022-10-11T13:24:16.350Z,16.65
2022-10-11T13:27:07.698Z,15.27
2022-10-11T13:29:44.516Z,17.08
2022-10-11T13:32:26.053Z,17.25
2022-10-11T13:34:56.902Z,17.00
2022-10-11T13:37:35.450Z,16.27
2022-10-11T13:40:03.356Z,16.02
2022-10-11T13:42:32.935Z,16.17
2022-10-11T13:45:16.224Z,18.40
2022-10-11T13:47:43.888Z,18.35
2022-10-11T13:50:38.382Z,17.38
2022-10-11T13:53:11.787Z,17.00
2022-10-11T13:56:00.101Z,18.30
2022-10-11T13:58:46.420Z,16.48
2022-10-11T14:01:35.169Z,16.63
2022-10-11T14:04:05.567Z,16.58
2022-10-11T14:07:04.411Z,17.30
2022-10-11T14:09:36.714Z,16.90
2022-10-11T14:12:32.664Z,16.65
2022-10-11T14:15:02.110Z,15.57
2022-10-11T14:17:51.378Z,15.50
2022-10-11T14:20:30.860Z,15.95
2022-10-11T14:23:07.363Z,16.65
2022-10-11T14:25:39.614Z,17.10
2022-10-11T14:28:23.468Z,16.35
2022-10-11T14:30:51.009Z,16.33
2022-10-11T14:33:33.457Z,14.88
2022-10-11T14:36:01.274Z,14.82
2022-10-11T14:38:28.689Z,13.90
2022-10-11T14:41:02.529Z,14.80
2022-10-11T14:43:29.918Z,15.40
2022-10-11T14:45:59.579Z,14.27
2022-10-11T14:48:54.418Z,14.93
2022-10-11T14:51:32.803Z,14.65
2022-10-11T14:54:06.302Z,15.75
2022-10-11T14:56:36.153Z,13.90
2022-10-11T14:59:03.666Z,12.98
2022-10-11T15:01:38.215Z,15.77
2022-10-11T15:04:06.356Z,15.63
2022-10-11T15:06:37.979Z,14.63
2022-10-11T15:09:13.527Z,14.43
2022-10-11T15:11:41.554Z,13.68
2022-10-11T15:14:09.631Z,14.23
2022-10-11T15:16:44.666Z,14.20
2022-10-11T15:19:20.023Z,14.75
2022-10-11T15:21:55.388Z,11.93
2022-10-11T15:24:25.683Z,13.60
2022-10-11T15:27:07.045Z,13.90
2022-10-11T15:29:42.388Z,13.60
2022-10-11T15:32:19.076Z,14.63
2022-10-11T15:34:46.685Z,14.15
2022-10-11T15:37:24.698Z,13.25
2022-10-11T15:39:52.556Z,14.18
2022-10-11T15:42:20.383Z,12.38
2022-10-11T15:44:57.603Z,13.27
2022-10-11T15:47:25.302Z,12.73
2022-10-11T15:49:55.491Z,12.88
2022-10-11T15:52:29.206Z,11.98
2022-10-11T15:54:56.819Z,11.15
2022-10-11T15:57:27.178Z,11.93
2022-10-11T16:00:01.014Z,12.15
2022-10-11T16:02:30.388Z,12.50
2022-10-11T16:04:59.102Z,12.93
2022-10-11T16:07:33.454Z,13.07
2022-10-11T16:10:01.064Z,13.73
2022-10-11T16:12:31.339Z,12.77
2022-10-11T16:15:05.808Z,12.32
2022-10-11T16:17:33.731Z,12.80
2022-10-11T16:20:01.561Z,13.10
2022-10-11T16:22:37.534Z,12.38
2022-10-11T16:25:06.483Z,13.77
2022-10-11T16:27:48.624Z,12.35
2022-10-11T16:30:27.320Z,13.77
2022-10-11T16:33:02.905Z,13.02
2022-10-11T16:35:32.685Z,14.57
2022-10-11T16:38:01.502Z,13.27
2022-10-11T16:40:37.144Z,12.63
2022-10-11T16:43:07.836Z,15.27
2022-10-11T16:45:49.097Z,12.48
2022-10-11T16:48:16.493Z,12.35
2022-10-11T16:50:44.288Z,12.20
2022-10-11T16:53:18.984Z,12.57
2022-10-11T16:55:46.461Z,14.77
2022-10-11T16:58:13.975Z,14.95
2022-10-11T17:00:50.119Z,14.80
2022-10-11T17:03:18.058Z,16.08
2022-10-11T17:05:45.570Z,16.38
2022-10-11T17:08:20.087Z,16.02
2022-10-11T17:10:53.993Z,16.58
2022-10-11T17:13:30.001Z,16.45
2022-10-11T17:15:57.512Z,19.02
2022-10-11T17:18:25.318Z,17.77
2022-10-11T17:21:11.311Z,17.13
2022-10-11T17:23:42.108Z,17.58
2022-10-11T17:26:22.751Z,17.05
2022-10-11T17:29:04.764Z,16.75
2022-10-11T17:31:38.813Z,17.10
2022-10-11T17:34:06.343Z,15.80
2022-10-11T17:36:34.898Z,16.98
2022-10-11T17:39:21.226Z,16.40
2022-10-11T17:41:49.330Z,16.30
2022-10-11T17:44:18.115Z,17.50
2022-10-11T17:46:53.253Z,18.73
2022-10-11T17:49:20.664Z,18.05
2022-10-11T17:51:48.186Z,16.98
2022-10-11T17:54:24.543Z,17.58
2022-10-11T17:56:52.404Z,44.90
2022-10-11T17:59:21.829Z,25.17
2022-10-11T18:02:01.713Z,19.00
2022-10-11T18:04:30.208Z,17.80
2022-10-11T18:06:57.829Z,17.65
2022-10-11T18:09:34.775Z,19.45
2022-10-11T18:12:02.340Z,26.50
2022-10-11T18:14:29.886Z,23.05
2022-10-11T18:17:03.840Z,20.70
2022-10-11T18:19:31.393Z,21.17
2022-10-11T18:22:01.017Z,20.63
2022-10-11T18:24:38.799Z,19.02
2022-10-11T18:27:26.728Z,19.17
2022-10-11T18:30:02.865Z,18.17
2022-10-11T18:32:30.491Z,20.23
2022-10-11T18:35:11.860Z,19.20
2022-10-11T18:37:39.706Z,21.60
2022-10-11T18:40:07.547Z,20.95
2022-10-11T18:42:41.762Z,20.55
2022-10-11T18:45:10.673Z,21.38
2022-10-11T18:47:38.807Z,25.48
2022-10-11T18:50:12.995Z,26.35
2022-10-11T18:52:44.462Z,25.88
2022-10-11T18:55:12.324Z,25.10
2022-10-11T18:57:47.082Z,22.83
2022-10-11T19:00:39.738Z,21.83
2022-10-11T19:03:11.539Z,22.98
2022-10-11T19:05:42.062Z,21.48
2022-10-11T19:08:09.751Z,22.95
2022-10-11T19:10:44.156Z,23.63
2022-10-11T19:13:11.746Z,24.42
2022-10-11T19:15:39.349Z,20.83
2022-10-11T19:18:20.534Z,21.98
2022-10-11T19:20:49.285Z,22.67
2022-10-11T19:23:21.104Z,21.05
2022-10-11T19:26:03.979Z,22.33
2022-10-11T19:28:38.769Z,22.88
2022-10-11T19:31:24.677Z,21.88
2022-10-11T19:33:53.000Z,20.20
2022-10-11T19:36:22.621Z,22.00
2022-10-11T19:38:58.059Z,21.52
2022-10-11T19:41:33.274Z,20.98
2022-10-11T19:44:08.131Z,21.08
2022-10-11T19:46:52.929Z,21.73
2022-10-11T19:49:31.115Z,22.75
2022-10-11T19:51:58.676Z,21.10
2022-10-11T19:54:26.468Z,24.00
2022-10-11T19:57:00.963Z,20.33
2022-10-11T19:59:28.810Z,22.63
2022-10-11T20:01:56.533Z,22.38
2022-10-11T20:07:27.147Z,19.67
2022-10-11T20:10:01.806Z,22.00
2022-10-11T20:12:30.020Z,22.20
2022-10-11T20:14:58.200Z,22.27
2022-10-11T20:17:53.876Z,22.48
2022-10-11T20:20:22.059Z,24.20
2022-10-11T20:23:01.287Z,23.08
2022-10-11T20:25:33.478Z,21.90
2022-10-11T20:28:14.515Z,27.05
2022-10-11T20:30:43.988Z,22.92
2022-10-11T20:33:11.976Z,23.85
2022-10-11T20:35:47.040Z,26.83
2022-10-11T20:38:17.336Z,26.52
2022-10-11T20:40:45.013Z,27.27
2022-10-11T20:43:21.679Z,27.30
2022-10-11T20:46:26.714Z,27.95
2022-10-11T20:49:10.518Z,27.30
2022-10-11T20:51:42.099Z,26.85
2022-10-11T20:54:16.533Z,27.55
2022-10-11T20:56:44.435Z,27.70
2022-10-11T20:59:11.944Z,27.30
2022-10-11T21:01:48.614Z,28.75
2022-10-11T21:04:20.916Z,25.05
2022-10-11T21:06:49.536Z,28.38
2022-10-11T21:09:24.471Z,26.17
2022-10-11T21:11:55.356Z,25.98
2022-10-11T21:14:22.823Z,29.08
2022-10-11T21:16:56.505Z,27.20
2022-10-11T21:19:24.136Z,28.70
2022-10-11T21:21:53.898Z,25.00
2022-10-11T21:24:28.471Z,27.88
2022-10-11T21:27:00.464Z,26.45
2022-10-11T21:29:43.929Z,26.52
2022-10-11T21:32:14.427Z,25.55
2022-10-11T21:34:42.232Z,28.88
2022-10-11T21:37:19.044Z,29.85
2022-10-11T21:39:48.793Z,28.10
2022-10-11T21:42:17.023Z,27.92
2022-10-11T21:44:51.123Z,28.70
2022-10-11T21:47:20.878Z,27.35
2022-10-11T21:49:48.324Z,27.17
2022-10-11T21:52:25.578Z,28.27
2022-10-11T21:54:53.051Z,28.05
2022-10-11T21:57:21.401Z,25.08
2022-10-11T21:59:55.195Z,30.75
2022-10-11T22:02:22.638Z,31.02
2022-10-11T22:04:50.119Z,30.83
2022-10-11T22:07:26.320Z,29.30
2022-10-11T22:09:53.705Z,30.23
2022-10-11T22:12:21.076Z,28.27
2022-10-11T22:14:58.108Z,31.52
2022-10-11T22:17:28.410Z,32.60
2022-10-11T22:19:55.863Z,31.45
2022-10-11T22:22:29.373Z,27.83
2022-10-11T22:24:56.823Z,27.67
2022-10-11T22:27:44.284Z,28.40
2022-10-11T22:30:12.097Z,29.67
2022-10-11T22:32:43.160Z,29.10
2022-10-11T22:35:19.007Z,29.48
2022-10-11T22:37:52.710Z,29.30
2022-10-11T22:40:27.958Z,30.00
2022-10-11T22:42:55.309Z,28.92
2022-10-11T22:45:22.659Z,28.38
2022-10-11T22:48:05.657Z,28.00
2022-10-11T22:50:33.018Z,33.33
2022-10-11T22:53:00.343Z,30.27
2022-10-11T22:55:34.670Z,31.25
2022-10-11T22:58:02.021Z,28.75
2022-10-11T23:00:32.239Z,30.15
2022-10-11T23:03:09.292Z,29.88
2022-10-11T23:05:36.674Z,29.15
2022-10-11T23:08:05.216Z,32.33
2022-10-11T23:10:38.946Z,31.17
2022-10-11T23:13:06.418Z,30.92
2022-10-11T23:15:41.178Z,32.03
2022-10-11T23:18:16.280Z,33.63
2022-10-11T23:20:43.746Z,29.48
2022-10-11T23:23:11.128Z,31.23
2022-10-11T23:25:45.314Z,32.47
2022-10-11T23:28:19.454Z,31.33
2022-10-11T23:30:53.270Z,33.50
2022-10-11T23:33:20.588Z,32.05
2022-10-11T23:35:50.585Z,40.30
2022-10-11T23:38:24.506Z,34.15
2022-10-11T23:40:54.410Z,30.70
2022-10-11T23:43:21.860Z,37.75
2022-10-11T23:45:56.359Z,35.20
2022-10-11T23:48:23.750Z,34.83
2022-10-11T23:50:51.173Z,33.70
2022-10-11T23:53:25.320Z,38.80
2022-10-11T23:55:55.391Z,35.03
2022-10-11T23:58:22.796Z,37.85
